Tucumcari, NM (88401)

10:38 PM MDT on July 25, 2016 (GMT -0600)
Tucumcari Municipal | | Change Station

Elev 4065 ft 35.18 °N, 103.60 °W | Updated 30 minutes ago

Heavy Rain
Heavy Rain
70 °F
Feels Like 70 °F
N
4
Wind Variable Wind from WNW

Today
High -- | Low -- °F
--% Chance of Precip.
Yesterday
High -- | Low -- °F
Precip. -- in
Pressure 30.26 in
Visibility 3.0 miles
Clouds Few 5500 ft
Mostly Cloudy 7500 ft
Overcast 9500 ft
Dew Point 64 °F
Humidity 81%
Rainfall 0.45 in
Snow Depth Not available.
5:59 AM 8:03 PM
Waning Gibbous, 59% visible
SPECI KTCC 260408Z AUTO 30003KT 3SM +RA FEW055 BKN075 OVC095 21/18 A3026 RMK AO2 LTG DSNT SW P0005 T02110178
Pressure 30.26 in
Visibility 3.0 miles
Clouds Few 5500 ft
Mostly Cloudy 7500 ft
Overcast 9500 ft
Dew Point 64 °F
Humidity 81%
Rainfall 0.45 in
Snow Depth Not available.
5:59 AM 8:03 PM
Waning Gibbous, 59% visible
SPECI KTCC 260408Z AUTO 30003KT 3SM +RA FEW055 BKN075 OVC095 21/18 A3026 RMK AO2 LTG DSNT SW P0005 T02110178

10-Day Weather Forecast

Almanac

Astronomy

Jul. 25, 2016 Rise Set
Actual Time
Civil Twilight
Nautical Twilight
Astronomical Twilight
Moon
Length of Visible Light
Length of Day
Tomorrow will be .
, % of the Moon is Illuminated

Today's Extremes

State Highs State Lows

Community

WunderPhotos

Upload Photos

1,927,534 photos uploaded!

WunderBlog® & News

Nearby

Air Quality

  Air Quality AQ Index Pollutant
Not available.

Snow Depth

Station Depth Elevation

Earthquake Activity

City Distance Mag. Time & Date
Minimum magnitude displayed is 2.5.

Coastal Water Temperatures

Place Temperature

Stations

Nearby Weather Stations

Station Location Temp. Windchill Dew Point Humidity Wind Precip. Elev Updated Type
                   

Watches & Warnings

There are currently no watches in effect.